Time;durP1;ratioP1;P1;durP2;ratioP2;P2;SDS_P1;SDS_P2;PMS_P1;PMS_P2;Temp;Humidity;BMP_temperature;BMP_pressure;BME280_temperature;BME280_humidity;BME280_pressure;Samples;Min_cycle;Max_cycle;Signal;HPM_P1;HPM_P2
2022/08/28 00:00:39;;;;;;;6.78;2.97;;;19.50;99.90;;;;;;5073756;28;20032;-48
2022/08/28 00:03:05;;;;;;;5.18;3.08;;;19.50;99.90;;;;;;5073320;28;20025;-46
2022/08/28 00:05:31;;;;;;;5.20;3.05;;;19.50;99.90;;;;;;5073470;28;20108;-48
2022/08/28 00:07:58;;;;;;;6.45;3.00;;;19.40;99.90;;;;;;5073318;28;20097;-53
2022/08/28 00:10:25;;;;;;;3.30;2.63;;;19.40;99.90;;;;;;5073571;28;20052;-53
2022/08/28 00:12:53;;;;;;;4.53;3.47;;;19.50;99.90;;;;;;5054880;28;20039;-46
2022/08/28 00:15:24;;;;;;;3.38;2.88;;;19.60;99.90;;;;;;5073235;28;20563;-48
2022/08/28 00:17:49;;;;;;;5.70;3.00;;;19.70;99.90;;;;;;5073238;28;20460;-50
2022/08/28 00:20:17;;;;;;;5.13;2.95;;;19.70;99.90;;;;;;5073400;28;20114;-50
2022/08/28 00:22:44;;;;;;;7.30;3.40;;;19.60;99.90;;;;;;5073052;28;20063;-49
2022/08/28 00:25:12;;;;;;;4.82;2.90;;;19.70;99.90;;;;;;5073128;28;20047;-46
2022/08/28 00:27:53;;;;;;;6.07;3.20;;;19.80;99.90;;;;;;5073407;28;20231;-48
2022/08/28 00:30:38;;;;;;;4.63;3.03;;;19.80;99.90;;;;;;5073027;28;20104;-46
2022/08/28 00:33:11;;;;;;;6.28;3.40;;;19.80;99.90;;;;;;5072636;28;20030;-46
2022/08/28 00:35:39;;;;;;;3.30;3.00;;;19.80;99.90;;;;;;5072915;28;20443;-46
2022/08/28 00:38:05;;;;;;;4.25;3.17;;;19.80;99.90;;;;;;5054846;28;20125;-50
2022/08/28 00:40:31;;;;;;;5.70;3.40;;;19.80;99.90;;;;;;5072279;28;20036;-51
2022/08/28 00:42:57;;;;;;;3.00;2.70;;;19.80;99.90;;;;;;5072566;28;20480;-49
2022/08/28 00:45:24;;;;;;;8.50;3.33;;;19.70;99.90;;;;;;5054806;28;20024;-50
2022/08/28 00:47:50;;;;;;;5.40;3.38;;;19.70;99.90;;;;;;5072831;28;20020;-51
2022/08/28 00:50:19;;;;;;;3.50;2.97;;;19.60;99.90;;;;;;5072650;28;20043;-47
2022/08/28 00:52:49;;;;;;;7.07;2.70;;;19.50;99.90;;;;;;5072039;28;20029;-45
2022/08/28 00:55:19;;;;;;;5.28;3.13;;;19.60;99.90;;;;;;5054334;28;20032;-49
2022/08/28 00:57:50;;;;;;;4.45;3.00;;;19.50;99.90;;;;;;5072708;28;20043;-51
2022/08/28 01:00:28;;;;;;;4.82;2.95;;;19.40;99.90;;;;;;5072684;28;20024;-48
2022/08/28 01:02:54;;;;;;;4.00;2.97;;;19.40;99.90;;;;;;5072035;28;20024;-46
2022/08/28 01:05:20;;;;;;;4.88;3.30;;;19.50;99.90;;;;;;5072386;28;20059;-50
2022/08/28 01:07:46;;;;;;;4.53;3.13;;;19.50;99.90;;;;;;5072159;28;20025;-49
2022/08/28 01:10:16;;;;;;;2.90;2.67;;;19.40;99.90;;;;;;5072270;28;20391;-50
2022/08/28 01:12:41;;;;;;;6.18;2.88;;;19.30;99.90;;;;;;5071776;28;20443;-47
2022/08/28 01:15:13;;;;;;;4.05;2.80;;;19.30;99.90;;;;;;5072140;28;20056;-51
2022/08/28 01:17:46;;;;;;;7.88;3.33;;;19.20;99.90;;;;;;5072011;28;20078;-47
2022/08/28 01:20:16;;;;;;;5.43;2.95;;;19.20;99.90;;;;;;5071898;28;20118;-47
2022/08/28 01:22:57;;;;;;;4.47;3.25;;;19.30;99.90;;;;;;5053802;28;20071;-51
2022/08/28 01:25:29;;;;;;;3.47;2.90;;;19.30;99.90;;;;;;5071904;28;20028;-52
2022/08/28 01:27:55;;;;;;;7.05;2.83;;;19.30;99.90;;;;;;5072028;28;20031;-47
2022/08/28 01:30:23;;;;;;;5.78;3.03;;;19.20;99.90;;;;;;5071999;28;20407;-48
2022/08/28 01:32:52;;;;;;;3.15;2.85;;;19.20;99.90;;;;;;5071388;28;20021;-51
2022/08/28 01:35:21;;;;;;;3.75;2.65;;;19.20;99.90;;;;;;5071747;28;20556;-47
2022/08/28 01:37:47;;;;;;;3.72;2.83;;;19.20;99.90;;;;;;5054176;28;20063;-47
2022/08/28 01:40:19;;;;;;;6.40;2.63;;;19.30;99.90;;;;;;5071582;28;20024;-48
2022/08/28 01:42:45;;;;;;;5.53;3.63;;;19.30;99.90;;;;;;5071334;28;20148;-47
2022/08/28 01:45:13;;;;;;;4.72;3.28;;;19.30;99.90;;;;;;5071674;28;20023;-47
2022/08/28 01:47:41;;;;;;;4.50;2.95;;;19.40;99.90;;;;;;5071760;28;20021;-49
2022/08/28 01:50:08;;;;;;;4.30;2.88;;;19.40;99.90;;;;;;5071762;28;20032;-47
2022/08/28 01:52:35;;;;;;;5.03;2.53;;;19.40;99.90;;;;;;5053236;28;20025;-45
2022/08/28 01:55:01;;;;;;;5.05;2.72;;;19.40;99.90;;;;;;5071540;28;20103;-49
2022/08/28 01:57:26;;;;;;;3.10;2.80;;;19.40;99.90;;;;;;5053685;28;20095;-49
2022/08/28 01:59:53;;;;;;;4.97;2.90;;;19.40;99.90;;;;;;5071640;28;20036;-49
2022/08/28 02:02:19;;;;;;;4.13;2.33;;;19.40;99.90;;;;;;5071257;28;20039;-53
2022/08/28 02:04:44;;;;;;;5.15;2.70;;;19.30;99.90;;;;;;5071475;28;20277;-47
2022/08/28 02:07:10;;;;;;;6.45;2.60;;;19.30;99.90;;;;;;5071527;28;20113;-47
2022/08/28 02:09:35;;;;;;;6.50;2.65;;;19.30;99.90;;;;;;5053379;28;20021;-52
2022/08/28 02:12:01;;;;;;;5.18;2.50;;;19.30;99.90;;;;;;5071208;28;20384;-47
2022/08/28 02:14:27;;;;;;;4.43;2.78;;;19.30;99.90;;;;;;5071469;28;20052;-49
2022/08/28 02:16:53;;;;;;;2.72;2.50;;;19.20;99.90;;;;;;5071351;28;20510;-51
2022/08/28 02:19:19;;;;;;;3.17;2.53;;;19.20;99.90;;;;;;5071466;28;20032;-52
2022/08/28 02:21:45;;;;;;;4.80;2.83;;;19.30;99.90;;;;;;5071240;28;20024;-46
2022/08/28 02:24:10;;;;;;;4.68;2.88;;;19.20;99.90;;;;;;5070990;28;20488;-50
2022/08/28 02:26:37;;;;;;;2.63;2.28;;;19.20;99.90;;;;;;5071031;28;20518;-51
2022/08/28 02:29:03;;;;;;;9.77;2.72;;;19.20;99.90;;;;;;5071257;28;20146;-51
2022/08/28 02:31:28;;;;;;;6.13;2.53;;;19.20;99.90;;;;;;5039103;28;20131;-51
2022/08/28 02:33:54;;;;;;;3.42;2.40;;;19.20;99.90;;;;;;5075148;28;20051;-49
2022/08/28 02:36:20;;;;;;;4.47;2.22;;;19.10;99.90;;;;;;5075777;28;20246;-50
2022/08/28 02:38:46;;;;;;;6.00;2.58;;;19.10;99.90;;;;;;5075137;28;20120;-49
2022/08/28 02:41:12;;;;;;;2.30;2.08;;;19.10;99.90;;;;;;5074956;28;20395;-50
2022/08/28 02:43:38;;;;;;;5.93;2.63;;;19.20;99.90;;;;;;5074662;28;20033;-51
2022/08/28 02:46:05;;;;;;;4.75;3.00;;;19.20;99.90;;;;;;5075056;28;20492;-49
2022/08/28 02:48:33;;;;;;;6.90;3.35;;;19.10;99.90;;;;;;5075163;28;20036;-49
2022/08/28 02:51:05;;;;;;;10.05;2.75;;;19.10;99.90;;;;;;5074917;28;20025;-46
2022/08/28 02:53:30;;;;;;;8.32;3.92;;;19.10;99.90;;;;;;5074787;28;20028;-46
2022/08/28 02:55:57;;;;;;;5.05;2.38;;;19.10;99.90;;;;;;5075067;28;20058;-47
2022/08/28 02:58:23;;;;;;;4.00;2.55;;;19.20;99.90;;;;;;5057320;28;20166;-51
2022/08/28 03:00:48;;;;;;;6.75;3.08;;;19.30;99.90;;;;;;5056834;28;20051;-50
2022/08/28 03:03:14;;;;;;;7.03;3.08;;;19.30;99.90;;;;;;5056580;28;20186;-50
2022/08/28 03:05:40;;;;;;;5.97;3.78;;;19.40;99.90;;;;;;5075133;28;20032;-48
2022/08/28 03:08:06;;;;;;;4.35;2.75;;;19.40;99.90;;;;;;5074537;28;20031;-50
2022/08/28 03:10:31;;;;;;;5.70;2.60;;;19.40;99.90;;;;;;5075024;28;20188;-51
2022/08/28 03:12:57;;;;;;;7.07;2.80;;;19.50;99.90;;;;;;5074184;28;20544;-48
2022/08/28 03:15:22;;;;;;;5.28;3.13;;;19.50;99.90;;;;;;5074479;28;20038;-51
2022/08/28 03:17:48;;;;;;;8.65;3.28;;;19.50;99.90;;;;;;5056622;28;20031;-50
2022/08/28 03:20:15;;;;;;;5.75;2.97;;;19.40;99.90;;;;;;5074518;28;20048;-48
2022/08/28 03:27:57;;;;;;;3.65;2.97;;;19.40;99.90;;;;;;5092111;22;20052;-46
2022/08/28 03:30:23;;;;;;;6.75;2.88;;;19.40;99.90;;;;;;5074350;28;20422;-51
2022/08/28 03:32:49;;;;;;;8.48;3.45;;;19.40;99.90;;;;;;5073879;28;20075;-48
2022/08/28 03:35:15;;;;;;;3.95;2.67;;;19.40;99.90;;;;;;5074326;28;20032;-48
2022/08/28 03:37:41;;;;;;;8.02;3.10;;;19.40;99.90;;;;;;5074151;28;20361;-43
2022/08/28 03:40:08;;;;;;;5.22;2.80;;;19.40;99.90;;;;;;5073768;28;20073;-45
2022/08/28 03:42:34;;;;;;;6.00;3.38;;;19.40;99.90;;;;;;5072921;28;20119;-48
2022/08/28 03:44:59;;;;;;;9.02;3.05;;;19.30;99.90;;;;;;5073934;28;20104;-52
2022/08/28 03:47:27;;;;;;;6.95;3.17;;;19.40;99.90;;;;;;5074117;28;20028;-44
2022/08/28 03:49:58;;;;;;;5.95;3.00;;;19.40;99.90;;;;;;5074249;28;20020;-46
2022/08/28 03:52:24;;;;;;;9.85;3.28;;;19.30;99.90;;;;;;5073823;28;20443;-53
2022/08/28 03:54:51;;;;;;;7.40;3.25;;;19.30;99.90;;;;;;5073942;28;20052;-45
2022/08/28 03:57:18;;;;;;;5.38;2.83;;;19.20;99.90;;;;;;5073707;28;20046;-51
2022/08/28 03:59:49;;;;;;;6.35;2.63;;;19.20;99.90;;;;;;5073834;28;20095;-50
2022/08/28 04:02:17;;;;;;;8.38;3.55;;;19.20;99.90;;;;;;5073364;28;20029;-48
2022/08/28 04:04:44;;;;;;;5.60;3.17;;;19.20;99.90;;;;;;5073686;28;20594;-46
2022/08/28 04:07:10;;;;;;;6.53;3.05;;;19.10;99.90;;;;;;5073827;28;20054;-47
2022/08/28 04:09:35;;;;;;;13.65;2.95;;;19.10;99.90;;;;;;5073523;28;20079;-43
2022/08/28 04:12:01;;;;;;;3.95;2.88;;;19.10;99.90;;;;;;5073491;28;20395;-51
2022/08/28 04:14:26;;;;;;;7.22;3.90;;;19.10;99.90;;;;;;5073516;28;20159;-48
2022/08/28 04:16:52;;;;;;;9.00;2.88;;;19.10;99.90;;;;;;5073381;28;20479;-48
2022/08/28 04:19:17;;;;;;;9.02;3.50;;;19.10;99.90;;;;;;5073419;28;20396;-47
2022/08/28 04:21:43;;;;;;;7.75;2.92;;;19.20;99.90;;;;;;5073467;28;20515;-44
2022/08/28 04:24:08;;;;;;;7.03;3.70;;;19.10;99.90;;;;;;5073081;28;20024;-45
2022/08/28 04:26:35;;;;;;;4.93;2.92;;;19.00;99.90;;;;;;5073127;28;20134;-46
2022/08/28 04:29:02;;;;;;;8.63;3.83;;;19.00;99.90;;;;;;5073308;28;20023;-46
2022/08/28 04:31:28;;;;;;;7.68;3.00;;;19.00;99.90;;;;;;5073148;28;20028;-44
2022/08/28 04:33:54;;;;;;;4.82;3.22;;;19.10;99.90;;;;;;5072850;28;20100;-52
2022/08/28 04:36:20;;;;;;;6.47;3.42;;;19.10;99.90;;;;;;5073099;28;20048;-51
2022/08/28 04:38:46;;;;;;;3.85;3.03;;;19.20;99.90;;;;;;5072679;28;20079;-50
2022/08/28 04:41:15;;;;;;;5.65;3.33;;;19.20;99.90;;;;;;5072891;28;20025;-46
2022/08/28 04:43:41;;;;;;;4.63;2.50;;;19.10;99.90;;;;;;5072586;28;20407;-46
2022/08/28 04:46:10;;;;;;;6.18;2.75;;;19.10;99.90;;;;;;5073104;28;20056;-46
2022/08/28 04:48:36;;;;;;;14.20;2.95;;;19.10;99.90;;;;;;5072833;28;20016;-46
2022/08/28 04:51:05;;;;;;;7.75;2.58;;;19.20;99.90;;;;;;5072615;28;20028;-46
2022/08/28 04:53:31;;;;;;;6.40;3.05;;;19.20;99.90;;;;;;5071406;28;20040;-42
2022/08/28 04:55:58;;;;;;;8.57;2.85;;;19.10;99.90;;;;;;5072529;28;20020;-47
2022/08/28 04:58:24;;;;;;;9.02;2.58;;;19.10;99.90;;;;;;5072750;28;20028;-47
2022/08/28 05:00:51;;;;;;;6.60;3.17;;;19.20;99.90;;;;;;5072511;28;20056;-47
2022/08/28 05:03:16;;;;;;;8.25;2.90;;;19.10;99.90;;;;;;5072054;28;20487;-46
2022/08/28 05:05:44;;;;;;;8.63;3.63;;;19.10;99.90;;;;;;5072291;28;20024;-42
2022/08/28 05:08:12;;;;;;;5.57;2.70;;;19.10;99.90;;;;;;5072454;28;20023;-46
2022/08/28 05:10:39;;;;;;;6.22;3.13;;;19.10;99.90;;;;;;5072335;28;20024;-49
2022/08/28 05:13:05;;;;;;;7.40;2.40;;;19.10;99.90;;;;;;5072095;28;20025;-46
2022/08/28 05:15:32;;;;;;;5.25;2.80;;;19.10;99.90;;;;;;5072320;28;20020;-46
2022/08/28 05:17:58;;;;;;;5.85;2.78;;;19.10;99.90;;;;;;5072161;28;20445;-41
2022/08/28 05:20:24;;;;;;;6.78;2.67;;;19.20;99.90;;;;;;5072205;28;20056;-46
2022/08/28 05:22:49;;;;;;;5.97;2.63;;;19.10;99.90;;;;;;5071846;28;20024;-46
2022/08/28 05:25:15;;;;;;;5.60;3.45;;;19.10;99.90;;;;;;5072320;28;20086;-49
2022/08/28 05:27:40;;;;;;;12.85;2.95;;;19.10;99.90;;;;;;5072322;28;20031;-45
2022/08/28 05:30:07;;;;;;;6.22;2.13;;;19.10;99.90;;;;;;5072143;28;20392;-46
2022/08/28 05:32:33;;;;;;;5.30;2.58;;;19.30;99.90;;;;;;5053696;28;20024;-46
2022/08/28 05:34:58;;;;;;;8.85;2.65;;;19.30;99.90;;;;;;5071875;28;20013;-45
2022/08/28 05:37:24;;;;;;;7.93;2.60;;;19.30;99.90;;;;;;5071980;28;20016;-45
2022/08/28 05:39:50;;;;;;;6.60;2.60;;;19.20;99.90;;;;;;5071646;28;20518;-44
2022/08/28 05:42:15;;;;;;;9.70;3.13;;;19.20;99.90;;;;;;5071606;28;20154;-47
2022/08/28 05:44:41;;;;;;;3.53;2.28;;;19.10;99.90;;;;;;5071630;28;20028;-44
2022/08/28 05:47:06;;;;;;;5.30;2.03;;;19.10;99.90;;;;;;5071490;28;20122;-44
2022/08/28 05:49:32;;;;;;;4.82;2.33;;;19.10;99.90;;;;;;5053752;28;20097;-42
2022/08/28 05:51:57;;;;;;;7.70;2.53;;;19.10;99.90;;;;;;5071216;28;20024;-45
2022/08/28 05:54:23;;;;;;;12.77;2.55;;;19.20;99.90;;;;;;5071554;28;20062;-46
2022/08/28 05:56:48;;;;;;;5.43;2.58;;;19.30;99.90;;;;;;5071505;28;20032;-45
2022/08/28 05:59:15;;;;;;;6.53;2.67;;;19.30;99.90;;;;;;5071570;28;20025;-50
2022/08/28 06:01:47;;;;;;;9.63;2.47;;;19.30;99.90;;;;;;5071371;28;20154;-46
2022/08/28 06:04:21;;;;;;;10.65;2.97;;;19.40;99.90;;;;;;5071083;28;20043;-46
2022/08/28 06:06:48;;;;;;;14.77;2.40;;;19.30;99.90;;;;;;5071552;28;20039;-45
2022/08/28 06:09:24;;;;;;;4.57;2.58;;;19.40;99.90;;;;;;5071298;28;20070;-47
2022/08/28 06:11:53;;;;;;;6.95;2.42;;;19.40;99.90;;;;;;5071242;28;20048;-48
2022/08/28 06:14:19;;;;;;;6.45;2.47;;;19.40;99.90;;;;;;5071295;28;20227;-46
2022/08/28 06:16:47;;;;;;;8.07;2.25;;;19.40;99.90;;;;;;5071350;28;20024;-51
2022/08/28 06:19:14;;;;;;;8.68;2.42;;;19.50;99.90;;;;;;5071373;28;20021;-48
2022/08/28 06:21:40;;;;;;;7.93;2.95;;;19.50;99.90;;;;;;5071279;28;20032;-45
2022/08/28 06:24:06;;;;;;;9.73;2.45;;;19.60;99.90;;;;;;5052932;28;20020;-46
2022/08/28 06:26:32;;;;;;;10.68;2.75;;;19.80;99.90;;;;;;5071079;28;20043;-46
2022/08/28 06:29:03;;;;;;;10.02;2.67;;;19.90;99.90;;;;;;5071534;28;20384;-46
2022/08/28 06:31:29;;;;;;;9.68;2.25;;;20.20;99.90;;;;;;5062754;28;20057;-44
2022/08/28 06:33:56;;;;;;;9.50;2.63;;;20.30;99.90;;;;;;5052755;28;20029;-47
2022/08/28 06:36:23;;;;;;;6.55;2.03;;;20.50;99.90;;;;;;5070810;28;20040;-46
2022/08/28 06:38:49;;;;;;;15.15;2.65;;;20.70;99.90;;;;;;5073104;28;20043;-48
2022/08/28 06:41:15;;;;;;;6.00;2.83;;;21.40;99.90;;;;;;5071859;28;20028;-46
2022/08/28 06:43:40;;;;;;;8.55;2.28;;;21.50;99.90;;;;;;5070104;28;20039;-49
2022/08/28 06:46:06;;;;;;;5.90;2.13;;;21.70;99.90;;;;;;5070476;28;20418;-46
2022/08/28 06:48:32;;;;;;;11.43;2.10;;;22.00;99.90;;;;;;5070754;28;20020;-48
2022/08/28 06:50:58;;;;;;;9.52;3.20;;;22.70;99.90;;;;;;5058244;28;20503;-44
2022/08/28 06:53:26;;;;;;;6.50;2.17;;;23.20;99.60;;;;;;5065198;28;20043;-45
2022/08/28 06:56:07;;;;;;;10.48;2.25;;;23.70;99.00;;;;;;5067053;28;20032;-44
2022/08/28 06:58:36;;;;;;;8.75;2.20;;;23.90;98.30;;;;;;5052762;28;20530;-44
2022/08/28 07:01:04;;;;;;;8.68;2.53;;;24.00;98.20;;;;;;5072864;28;20100;-51
2022/08/28 07:03:30;;;;;;;12.38;3.35;;;24.40;97.60;;;;;;5071826;28;20373;-47
2022/08/28 07:05:58;;;;;;;11.73;2.05;;;24.50;97.00;;;;;;5071321;28;20099;-46
2022/08/28 07:08:25;;;;;;;6.35;1.83;;;25.00;96.70;;;;;;5071372;28;20032;-43
2022/08/28 07:10:52;;;;;;;7.20;1.60;;;25.60;95.90;;;;;;5070960;28;20028;-41
2022/08/28 07:13:19;;;;;;;12.13;2.10;;;25.90;94.70;;;;;;5070139;28;20052;-46
2022/08/28 07:15:44;;;;;;;10.40;1.95;;;25.90;94.70;;;;;;5070835;28;20515;-45
2022/08/28 07:18:11;;;;;;;7.07;2.20;;;25.70;94.60;;;;;;5074589;28;20099;-46
2022/08/28 07:20:36;;;;;;;8.23;2.20;;;25.50;94.70;;;;;;5074493;28;20103;-48
2022/08/28 07:23:02;;;;;;;7.63;2.58;;;24.90;95.20;;;;;;5073923;28;20108;-45
2022/08/28 07:25:28;;;;;;;7.95;1.98;;;24.20;96.30;;;;;;5074330;28;20460;-41
2022/08/28 07:27:54;;;;;;;8.43;2.35;;;23.90;97.00;;;;;;5074199;28;20120;-46
2022/08/28 07:30:19;;;;;;;5.88;2.63;;;23.40;97.60;;;;;;5074294;28;20019;-44
2022/08/28 07:32:48;;;;;;;6.88;2.65;;;23.60;97.80;;;;;;5073872;28;20025;-45
2022/08/28 07:35:15;;;;;;;6.30;2.22;;;24.50;96.60;;;;;;5074221;28;20023;-45
2022/08/28 07:37:40;;;;;;;6.82;2.10;;;24.80;95.80;;;;;;5074603;28;20020;-41
2022/08/28 07:40:08;;;;;;;5.88;1.67;;;25.40;94.70;;;;;;5074048;28;20107;-46
2022/08/28 07:45:18;;;;;;;3.80;1.60;;;25.50;94.40;;;;;;5074141;28;20039;-45
2022/08/28 07:47:44;;;;;;;7.97;2.25;;;26.30;93.60;;;;;;5073913;28;20466;-45
2022/08/28 07:50:09;;;;;;;8.70;2.05;;;26.60;93.20;;;;;;5073898;28;20032;-45
2022/08/28 07:52:36;;;;;;;8.65;2.10;;;27.20;92.10;;;;;;5073423;28;20108;-45
2022/08/28 07:55:03;;;;;;;5.05;1.95;;;26.20;92.40;;;;;;5073894;28;20021;-45
2022/08/28 07:57:30;;;;;;;8.48;2.05;;;25.90;92.90;;;;;;5073463;28;20020;-46
2022/08/28 07:59:57;;;;;;;5.05;2.00;;;26.20;92.90;;;;;;5072961;28;20028;-50
2022/08/28 08:02:22;;;;;;;5.43;2.67;;;25.70;92.80;;;;;;5072811;28;20077;-48
2022/08/28 08:04:48;;;;;;;7.75;2.70;;;25.40;93.40;;;;;;5069201;28;20124;-47
2022/08/28 08:07:16;;;;;;;4.15;1.70;;;25.00;93.50;;;;;;5073433;28;20025;-47
2022/08/28 08:09:43;;;;;;;7.25;2.20;;;24.40;94.40;;;;;;5073572;28;20021;-46
2022/08/28 08:12:09;;;;;;;3.50;2.17;;;24.00;95.10;;;;;;5055109;28;20111;-46
2022/08/28 08:14:36;;;;;;;6.22;2.00;;;23.50;96.10;;;;;;5053625;28;20036;-47
2022/08/28 08:17:03;;;;;;;8.82;2.50;;;23.40;96.10;;;;;;5068226;28;20056;-50
2022/08/28 08:19:28;;;;;;;4.97;1.98;;;23.20;96.50;;;;;;5053458;28;20060;-48
2022/08/28 08:21:55;;;;;;;12.30;2.45;;;23.20;96.60;;;;;;5064051;28;20056;-48
2022/08/28 08:24:21;;;;;;;7.25;2.72;;;22.70;96.90;;;;;;5073294;28;20020;-44
2022/08/28 08:26:50;;;;;;;13.27;2.33;;;22.80;97.20;;;;;;5072657;28;20549;-45
2022/08/28 08:29:16;;;;;;;6.07;2.10;;;22.50;98.10;;;;;;5054868;28;20393;-50
2022/08/28 08:31:42;;;;;;;5.10;1.85;;;22.50;98.00;;;;;;5072471;28;20074;-46
2022/08/28 08:34:08;;;;;;;4.32;2.40;;;22.60;98.00;;;;;;5061014;28;20028;-47
2022/08/28 08:36:36;;;;;;;7.88;3.53;;;22.80;97.80;;;;;;5073221;28;20056;-47
2022/08/28 08:39:04;;;;;;;12.07;2.28;;;23.20;97.40;;;;;;5053857;28;20039;-52
2022/08/28 08:41:51;;;;;;;7.10;2.15;;;23.70;96.30;;;;;;5055298;28;20092;-45
2022/08/28 08:44:30;;;;;;;6.53;2.17;;;24.10;96.30;;;;;;5072904;28;20028;-47
2022/08/28 08:47:10;;;;;;;8.65;2.30;;;24.30;95.10;;;;;;5035307;28;20025;-52
2022/08/28 08:49:40;;;;;;;7.15;2.70;;;24.50;95.00;;;;;;5063461;28;20033;-50
2022/08/28 08:52:50;;;;;;;10.93;3.45;;;24.20;95.10;;;;;;5072521;28;20021;-46
2022/08/28 08:55:16;;;;;;;6.70;2.25;;;24.20;94.90;;;;;;5063606;28;20029;-45
2022/08/28 08:57:43;;;;;;;36.25;23.83;;;24.20;94.80;;;;;;5059164;28;20100;-47
2022/08/28 09:00:10;;;;;;;12.55;6.72;;;24.20;95.10;;;;;;5052831;28;20435;-47
2022/08/28 09:02:50;;;;;;;15.18;7.22;;;24.00;95.30;;;;;;5069432;28;20074;-42
2022/08/28 09:05:20;;;;;;;8.27;2.55;;;23.80;95.70;;;;;;5059371;28;20120;-45
2022/08/28 09:07:55;;;;;;;6.15;2.50;;;23.60;96.00;;;;;;5070438;28;20103;-43
2022/08/28 09:10:23;;;;;;;8.70;2.88;;;23.20;95.90;;;;;;5073146;28;20491;-40
2022/08/28 09:13:01;;;;;;;8.38;2.30;;;23.20;95.90;;;;;;5072312;28;20119;-43
2022/08/28 09:15:34;;;;;;;12.38;2.67;;;23.00;96.10;;;;;;5072492;28;20050;-41
2022/08/28 09:18:16;;;;;;;9.23;2.78;;;22.80;96.40;;;;;;5071913;28;20395;-47
2022/08/28 09:20:42;;;;;;;6.50;2.33;;;22.90;96.50;;;;;;5055602;28;20484;-45
2022/08/28 09:23:08;;;;;;;10.25;3.60;;;22.90;96.30;;;;;;5049760;28;20033;-45
2022/08/28 09:26:08;;;;;;;6.93;2.38;;;23.00;96.00;;;;;;5033020;28;20040;-41
2022/08/28 09:28:37;;;;;;;7.95;2.17;;;23.20;95.90;;;;;;5050744;28;20049;-49
2022/08/28 09:31:06;;;;;;;9.43;3.13;;;23.20;95.30;;;;;;5051915;28;20094;-42
2022/08/28 09:33:44;;;;;;;3.95;2.35;;;23.60;95.10;;;;;;5033562;28;20043;-46
2022/08/28 09:36:20;;;;;;;7.15;2.40;;;24.20;94.10;;;;;;5051994;28;20040;-44
2022/08/28 09:39:00;;;;;;;8.38;2.70;;;24.60;93.50;;;;;;5072931;22;20661;-42
2022/08/28 09:44:14;;;;;;;9.07;2.65;;;24.60;93.20;;;;;;5051290;28;20040;-42
2022/08/28 09:46:44;;;;;;;9.13;2.35;;;25.10;92.10;;;;;;5051564;28;20103;-43
2022/08/28 09:49:13;;;;;;;7.22;2.10;;;25.20;92.10;;;;;;5051515;28;20025;-41
2022/08/28 09:51:38;;;;;;;9.80;2.55;;;25.00;92.20;;;;;;5051644;28;20014;-44
2022/08/28 09:54:15;;;;;;;3.85;2.38;;;25.00;92.20;;;;;;5051450;28;20043;-40
2022/08/28 09:56:43;;;;;;;7.80;2.30;;;25.10;92.30;;;;;;5051590;28;20400;-42
2022/08/28 09:59:14;;;;;;;4.68;1.95;;;25.30;91.60;;;;;;5051589;28;20091;-42
2022/08/28 10:01:40;;;;;;;4.53;2.20;;;25.40;91.70;;;;;;5051566;28;20036;-45
2022/08/28 10:04:15;;;;;;;3.95;1.98;;;25.60;90.80;;;;;;5051205;28;20029;-44
2022/08/28 10:06:47;;;;;;;6.22;2.80;;;25.90;90.60;;;;;;5051459;28;20039;-44
2022/08/28 10:09:19;;;;;;;9.90;2.45;;;26.00;90.30;;;;;;5051405;28;20399;-47
2022/08/28 10:11:59;;;;;;;7.75;2.45;;;25.80;90.10;;;;;;5035024;28;20032;-52
2022/08/28 10:14:37;;;;;;;9.10;2.70;;;25.60;90.30;;;;;;5051881;28;20527;-45
2022/08/28 10:17:02;;;;;;;5.25;2.50;;;25.50;90.10;;;;;;5052529;28;20033;-44
2022/08/28 10:19:34;;;;;;;7.75;3.47;;;25.30;90.70;;;;;;5052136;28;20122;-43
2022/08/28 10:22:25;;;;;;;36.05;20.77;;;25.40;90.70;;;;;;5051189;28;20113;-46
2022/08/28 10:25:24;;;;;;;6.03;2.65;;;25.30;90.50;;;;;;5020685;28;20045;-42
2022/08/28 10:28:04;;;;;;;6.53;2.35;;;25.20;90.50;;;;;;5047025;28;20028;-49
2022/08/28 10:30:36;;;;;;;6.00;2.42;;;25.30;90.90;;;;;;5051139;28;20028;-42
2022/08/28 10:33:20;;;;;;;9.75;2.35;;;25.40;90.60;;;;;;5051006;28;20559;-41
2022/08/28 10:35:54;;;;;;;7.13;2.20;;;25.50;90.30;;;;;;5051367;28;20558;-41
2022/08/28 10:38:37;;;;;;;7.82;2.20;;;25.50;90.20;;;;;;5061521;28;20028;-39
2022/08/28 10:41:17;;;;;;;7.75;2.22;;;25.50;90.40;;;;;;5070932;28;20036;-42
2022/08/28 10:43:51;;;;;;;5.07;2.22;;;25.70;90.00;;;;;;5070870;28;20024;-45
2022/08/28 10:46:28;;;;;;;16.80;11.07;;;25.80;89.30;;;;;;5071081;28;20504;-43
2022/08/28 10:48:59;;;;;;;31.75;20.90;;;25.80;88.90;;;;;;5070799;28;20047;-42
2022/08/28 10:51:41;;;;;;;7.72;3.45;;;25.60;88.90;;;;;;5071341;28;20077;-44
2022/08/28 10:54:32;;;;;;;7.60;2.35;;;25.10;90.00;;;;;;5074219;28;20404;-45
2022/08/28 10:57:29;;;;;;;7.53;2.50;;;25.00;90.60;;;;;;5078628;28;20025;-44
2022/08/28 10:59:56;;;;;;;6.70;2.53;;;24.70;90.60;;;;;;5074528;28;20051;-45
2022/08/28 11:02:24;;;;;;;8.48;3.05;;;24.50;90.90;;;;;;5073917;28;20099;-43
2022/08/28 11:04:52;;;;;;;9.15;2.42;;;24.40;90.90;;;;;;5073066;28;20468;-45
2022/08/28 11:07:48;;;;;;;6.05;2.33;;;24.50;91.30;;;;;;5074363;28;20042;-44
2022/08/28 11:10:43;;;;;;;;;;;24.60;91.10;;;;;;5072729;28;20037;-43
2022/08/28 11:13:09;;;;;;;5.00;1.95;;;24.60;90.70;;;;;;5074181;28;19923;-43
2022/08/28 11:15:35;;;;;;;4.30;2.22;;;24.70;91.20;;;;;;5055555;28;20036;-46
2022/08/28 11:18:09;;;;;;;6.20;2.72;;;24.80;91.50;;;;;;5074335;28;20025;-47
2022/08/28 11:20:35;;;;;;;15.73;3.47;;;24.90;90.60;;;;;;5073909;28;20455;-52
2022/08/28 11:23:15;;;;;;;10.85;2.78;;;25.00;91.00;;;;;;5073524;28;20055;-44
2022/08/28 11:25:57;;;;;;;12.00;3.60;;;25.10;91.30;;;;;;5074287;28;20070;-44
2022/08/28 11:28:23;;;;;;;12.70;2.63;;;25.10;90.90;;;;;;5074464;28;20025;-44
2022/08/28 11:31:11;;;;;;;11.05;2.70;;;25.10;90.70;;;;;;5074158;28;20407;-48
2022/08/28 11:33:47;;;;;;;8.68;2.60;;;25.10;90.30;;;;;;5073481;28;20025;-46
2022/08/28 11:36:21;;;;;;;7.57;2.60;;;24.70;90.50;;;;;;5073877;28;20031;-44
2022/08/28 11:38:50;;;;;;;5.03;1.92;;;24.70;90.80;;;;;;5056134;28;20087;-45
2022/08/28 11:41:35;;;;;;;9.68;2.75;;;24.80;91.40;;;;;;5074037;28;20028;-45
2022/08/28 11:44:12;;;;;;;5.85;2.50;;;24.90;90.80;;;;;;5073298;28;20033;-46
2022/08/28 11:46:49;;;;;;;6.28;2.33;;;25.00;90.70;;;;;;5073738;28;20024;-48
2022/08/28 11:49:32;;;;;;;6.50;2.60;;;25.00;90.10;;;;;;5055885;28;20024;-49
2022/08/28 11:52:35;;;;;;;7.72;2.40;;;25.00;89.80;;;;;;5055283;28;20352;-49
2022/08/28 11:55:20;;;;;;;16.67;8.02;;;24.80;90.00;;;;;;5073219;28;20035;-46
2022/08/28 11:58:17;;;;;;;16.40;9.50;;;24.80;90.10;;;;;;5073546;28;20025;-45
2022/08/28 12:01:02;;;;;;;5.75;2.60;;;24.70;90.20;;;;;;5073480;28;20089;-47
2022/08/28 12:03:59;;;;;;;5.75;2.33;;;24.60;90.30;;;;;;5070896;28;20119;-43
2022/08/28 12:06:43;;;;;;;6.57;2.08;;;24.60;90.30;;;;;;5049166;28;20513;-45
2022/08/28 12:09:10;;;;;;;4.75;2.65;;;24.70;90.00;;;;;;5055030;28;20032;-48
2022/08/28 12:11:39;;;;;;;8.98;2.50;;;24.70;90.10;;;;;;5056361;28;20480;-45
2022/08/28 12:14:24;;;;;;;7.95;2.65;;;24.70;90.40;;;;;;5073795;28;20032;-45
2022/08/28 12:16:58;;;;;;;5.40;1.95;;;24.70;90.40;;;;;;5073508;28;20033;-44
2022/08/28 12:19:32;;;;;;;9.55;3.05;;;24.70;90.20;;;;;;5073452;28;20062;-45
2022/08/28 12:22:04;;;;;;;6.07;2.42;;;24.80;90.40;;;;;;5073114;28;20062;-46
2022/08/28 12:24:30;;;;;;;9.40;2.15;;;25.00;90.50;;;;;;5073300;28;20025;-47
2022/08/28 12:26:55;;;;;;;7.95;2.13;;;25.00;90.00;;;;;;5073109;28;20032;-48
2022/08/28 12:29:42;;;;;;;6.05;3.38;;;25.10;90.00;;;;;;5073105;28;20039;-47
2022/08/28 12:32:29;;;;;;;8.10;2.20;;;25.10;89.80;;;;;;5054524;28;20028;-46
2022/08/28 12:34:57;;;;;;;5.95;2.15;;;25.10;89.90;;;;;;5072996;28;20468;-47
2022/08/28 12:37:42;;;;;;;4.20;2.70;;;25.00;90.00;;;;;;5072799;28;20492;-45
2022/08/28 12:40:35;;;;;;;6.63;2.10;;;25.00;89.60;;;;;;5072448;28;20123;-48
2022/08/28 12:43:07;;;;;;;6.05;2.08;;;25.00;89.70;;;;;;5053979;28;20496;-46
2022/08/28 12:45:38;;;;;;;7.30;2.47;;;25.00;89.40;;;;;;5072679;28;20036;-45
2022/08/28 12:48:15;;;;;;;7.22;2.25;;;25.00;89.60;;;;;;5072707;28;20292;-47
2022/08/28 12:50:41;;;;;;;4.65;2.22;;;24.90;90.10;;;;;;5072187;28;20025;-47
2022/08/28 12:53:13;;;;;;;3.63;1.90;;;24.90;89.90;;;;;;5072529;28;20115;-46
2022/08/28 12:55:39;;;;;;;3.15;1.90;;;25.00;89.10;;;;;;5072208;28;20017;-47
2022/08/28 12:58:11;;;;;;;5.63;2.42;;;25.10;89.50;;;;;;5072990;28;20020;-49
2022/08/28 13:00:52;;;;;;;6.53;2.75;;;25.20;89.80;;;;;;5072684;28;20059;-44
2022/08/28 13:03:18;;;;;;;5.88;2.78;;;25.30;90.40;;;;;;5072560;28;20037;-45
2022/08/28 13:05:43;;;;;;;5.95;3.38;;;25.40;90.00;;;;;;5072279;28;20024;-45
2022/08/28 13:08:11;;;;;;;7.88;2.88;;;25.50;90.50;;;;;;5072666;28;20056;-48
2022/08/28 13:10:47;;;;;;;4.40;2.20;;;25.60;89.40;;;;;;5054173;28;20476;-44